Airfield :
LOGIN :

Register | Disclaimer

   EN    FR    IT 

 










Legend :    VFR   Marginal VFR   IFR   Intensive IFR   Very Intensive IFR
Visi :
Ceiling :
>= 8 km
>= 3000ft
5 to 8 km
1000 to 3000 ft
1500m to 5 km
500 to 1000 ft
800 to 1500m
200 to 500 ft
< 800m
< 200 ft
Symbols :   Thunderstorms  Fog  Heavy snow  Heavy precipitations  Wind > 20 kt
SIGMETs :     Misc.  Thunderstorms  Icing  Turbulence  Mountain Waves  Volcanic Ashes







- Airport Elevation : 1273 ft
- IATA code : LJU


LJLJ - Ljubljana

CURRENT METAR :
  • 230000Z VRB01KT 9999 OVC028 04/02 Q1015 NOSIG

EXPIRED METARs :
  • 222330Z 28003KT 250V310 9999 OVC028 06/02 Q1015 NOSIG
  • 222300Z 28003KT 250V310 9999 OVC028 06/02 Q1015 NOSIG
  • 222230Z 24005KT 9999 OVC028 06/02 Q1015 NOSIG
  • 222200Z 24004KT 9999 OVC028 05/02 Q1015 NOSIG
  • 222130Z 24003KT 200V280 9999 OVC028 06/02 Q1015 NOSIG
  • 222100Z 24004KT 210V270 9999 BKN025 06/02 Q1015 NOSIG

TAF TAF LJLJ
Valid from the 23 at 00:00 until the 24 at 00:00 UTC


222300Z 2300/2324 24003KT 9999 OVC030
TEMPO 2300/2312 BKN030
PROB40
TEMPO 2308/2324 7000 -RA OVC020
BECMG 2309/2312 26008KT
No reported NOTAMs for that airfield.



MET'MAP, your aeronautical weather chart ! - Copyright ORBIFLY December 2007 - Disclaimer

ORBIFLY MET'MAP TEAM :

Programming & Development : Alexandra Zaïnal
Concept & Development : Baudouin d'Aumeries
Co-Development & Prog : Marc-Olivier Méhu
Technical & hardware support : Manuel Goepfert

Contact : metmap@orbifly.com




SOURCES & CREDITS :

   NOAA